Marlborough, New Hampshire
Current Conditions -  °F | °C
As of 5:15 PM on Saturday 25 Oct 2014 (Local Time) from KEEN Reporting Station
Few Clouds Few Clouds  
Wind Chill: 57°   Ceiling: Unl
Heat Index: 57°   Visibility: 10mi
Dew Point: 39°   Wind: 3mph
Humidity: 51%   Direction: 230°SW
Pressure: 29.61"   Gusts: NA
Location:  42.9°N, 72.21°W
Report Text: KEEN 252115Z AUTO 23003KT 10SM FEW050 14/04 A2961 RMK AO1
Loading
Personal Weather Stations






























Interactive Weather Map
Tropical Storm Tracking
New forecast layout! Learn more

10-Day Weather Forecast

Advertisements
Track Severe Weather on mobile